sensor_id;sensor_type;location;lat;lon;timestamp;temperature;humidity
9209;DHT22;4639;48.862;9.188;2022-12-29T00:01:44;10.20;99.90
9209;DHT22;4639;48.862;9.188;2022-12-29T00:04:13;10.30;99.90
9209;DHT22;4639;48.862;9.188;2022-12-29T00:06:39;10.30;99.90
9209;DHT22;4639;48.862;9.188;2022-12-29T00:09:05;10.40;99.90
9209;DHT22;4639;48.862;9.188;2022-12-29T00:11:30;10.40;99.90
9209;DHT22;4639;48.862;9.188;2022-12-29T00:13:56;10.30;99.90
9209;DHT22;4639;48.862;9.188;2022-12-29T00:16:42;10.30;99.90
9209;DHT22;4639;48.862;9.188;2022-12-29T00:19:08;10.40;99.90
9209;DHT22;4639;48.862;9.188;2022-12-29T00:21:54;10.40;99.90
9209;DHT22;4639;48.862;9.188;2022-12-29T00:24:55;10.40;99.90
9209;DHT22;4639;48.862;9.188;2022-12-29T00:27:28;10.50;99.90
9209;DHT22;4639;48.862;9.188;2022-12-29T00:30:16;10.50;99.90
9209;DHT22;4639;48.862;9.188;2022-12-29T00:33:15;10.60;99.90
9209;DHT22;4639;48.862;9.188;2022-12-29T00:38:38;10.60;99.90
9209;DHT22;4639;48.862;9.188;2022-12-29T00:41:24;10.60;99.90
9209;DHT22;4639;48.862;9.188;2022-12-29T00:44:10;10.70;99.90
9209;DHT22;4639;48.862;9.188;2022-12-29T00:46:37;10.60;99.90
9209;DHT22;4639;48.862;9.188;2022-12-29T00:49:03;10.70;99.90
9209;DHT22;4639;48.862;9.188;2022-12-29T00:51:48;10.70;99.90
9209;DHT22;4639;48.862;9.188;2022-12-29T00:54:14;10.70;99.90
9209;DHT22;4639;48.862;9.188;2022-12-29T00:56:40;10.70;99.90
9209;DHT22;4639;48.862;9.188;2022-12-29T00:59:08;10.80;99.90
9209;DHT22;4639;48.862;9.188;2022-12-29T01:01:34;10.70;99.90
9209;DHT22;4639;48.862;9.188;2022-12-29T01:04:00;10.80;99.90
9209;DHT22;4639;48.862;9.188;2022-12-29T01:06:26;10.90;99.90
9209;DHT22;4639;48.862;9.188;2022-12-29T01:08:51;10.90;99.90
9209;DHT22;4639;48.862;9.188;2022-12-29T01:11:36;10.90;99.90
9209;DHT22;4639;48.862;9.188;2022-12-29T01:14:02;10.90;99.90
9209;DHT22;4639;48.862;9.188;2022-12-29T01:16:28;11.00;99.90
9209;DHT22;4639;48.862;9.188;2022-12-29T01:18:54;11.00;99.90
9209;DHT22;4639;48.862;9.188;2022-12-29T01:21:19;11.00;99.90
9209;DHT22;4639;48.862;9.188;2022-12-29T01:23:45;11.00;99.90
9209;DHT22;4639;48.862;9.188;2022-12-29T01:26:12;11.00;99.90
9209;DHT22;4639;48.862;9.188;2022-12-29T01:28:39;11.00;99.90
9209;DHT22;4639;48.862;9.188;2022-12-29T01:31:06;11.00;99.90
9209;DHT22;4639;48.862;9.188;2022-12-29T01:33:32;11.10;99.90
9209;DHT22;4639;48.862;9.188;2022-12-29T01:36:04;11.10;99.90
9209;DHT22;4639;48.862;9.188;2022-12-29T01:38:31;11.20;99.90
9209;DHT22;4639;48.862;9.188;2022-12-29T01:40:56;11.10;99.90
9209;DHT22;4639;48.862;9.188;2022-12-29T01:43:50;11.10;99.90
9209;DHT22;4639;48.862;9.188;2022-12-29T01:46:25;11.00;99.90
9209;DHT22;4639;48.862;9.188;2022-12-29T01:51:28;11.10;99.90
9209;DHT22;4639;48.862;9.188;2022-12-29T01:53:55;11.10;99.90
9209;DHT22;4639;48.862;9.188;2022-12-29T01:56:24;11.20;99.90
9209;DHT22;4639;48.862;9.188;2022-12-29T01:58:56;11.20;99.90
9209;DHT22;4639;48.862;9.188;2022-12-29T02:01:24;11.20;99.90
9209;DHT22;4639;48.862;9.188;2022-12-29T02:03:51;11.20;99.90
9209;DHT22;4639;48.862;9.188;2022-12-29T02:06:47;11.20;99.90
9209;DHT22;4639;48.862;9.188;2022-12-29T02:09:14;11.10;99.90
9209;DHT22;4639;48.862;9.188;2022-12-29T02:11:40;11.20;99.90
9209;DHT22;4639;48.862;9.188;2022-12-29T02:14:13;11.10;99.90
9209;DHT22;4639;48.862;9.188;2022-12-29T02:33:49;11.20;99.90
9209;DHT22;4639;48.862;9.188;2022-12-29T02:44:34;11.10;99.90
9209;DHT22;4639;48.862;9.188;2022-12-29T02:47:10;11.10;99.90
9209;DHT22;4639;48.862;9.188;2022-12-29T02:49:44;11.10;99.90
9209;DHT22;4639;48.862;9.188;2022-12-29T02:52:18;11.10;99.90
9209;DHT22;4639;48.862;9.188;2022-12-29T02:54:48;11.10;99.90
9209;DHT22;4639;48.862;9.188;2022-12-29T02:57:27;11.20;99.90
9209;DHT22;4639;48.862;9.188;2022-12-29T03:00:10;11.20;99.90
9209;DHT22;4639;48.862;9.188;2022-12-29T03:06:00;11.20;99.90
9209;DHT22;4639;48.862;9.188;2022-12-29T03:08:50;11.20;99.90
9209;DHT22;4639;48.862;9.188;2022-12-29T03:11:22;11.20;99.90
9209;DHT22;4639;48.862;9.188;2022-12-29T03:14:32;11.10;99.90
9209;DHT22;4639;48.862;9.188;2022-12-29T03:17:39;11.20;99.90
9209;DHT22;4639;48.862;9.188;2022-12-29T03:20:08;11.20;99.90
9209;DHT22;4639;48.862;9.188;2022-12-29T03:22:38;11.20;99.90
9209;DHT22;4639;48.862;9.188;2022-12-29T03:25:13;11.20;99.90
9209;DHT22;4639;48.862;9.188;2022-12-29T03:27:54;11.20;99.90
9209;DHT22;4639;48.862;9.188;2022-12-29T03:30:21;11.20;99.90
9209;DHT22;4639;48.862;9.188;2022-12-29T03:32:58;11.30;99.90
9209;DHT22;4639;48.862;9.188;2022-12-29T03:35:27;11.30;99.90
9209;DHT22;4639;48.862;9.188;2022-12-29T03:40:48;11.30;99.90
9209;DHT22;4639;48.862;9.188;2022-12-29T03:43:15;11.30;99.90
9209;DHT22;4639;48.862;9.188;2022-12-29T03:45:41;11.40;99.90
9209;DHT22;4639;48.862;9.188;2022-12-29T03:48:06;11.40;99.90
9209;DHT22;4639;48.862;9.188;2022-12-29T03:50:32;11.50;99.90
9209;DHT22;4639;48.862;9.188;2022-12-29T03:52:58;11.40;99.90
9209;DHT22;4639;48.862;9.188;2022-12-29T03:55:23;11.50;99.90
9209;DHT22;4639;48.862;9.188;2022-12-29T03:57:49;11.50;99.90
9209;DHT22;4639;48.862;9.188;2022-12-29T04:00:14;11.60;99.90
9209;DHT22;4639;48.862;9.188;2022-12-29T04:02:41;11.60;99.90
9209;DHT22;4639;48.862;9.188;2022-12-29T04:05:07;11.60;99.90
9209;DHT22;4639;48.862;9.188;2022-12-29T04:07:32;11.60;99.90
9209;DHT22;4639;48.862;9.188;2022-12-29T04:09:58;11.60;99.90
9209;DHT22;4639;48.862;9.188;2022-12-29T04:12:23;11.50;99.90
9209;DHT22;4639;48.862;9.188;2022-12-29T04:14:49;11.50;99.90
9209;DHT22;4639;48.862;9.188;2022-12-29T04:17:14;11.50;99.90
9209;DHT22;4639;48.862;9.188;2022-12-29T04:19:40;11.50;99.90
9209;DHT22;4639;48.862;9.188;2022-12-29T04:22:05;11.60;99.90
9209;DHT22;4639;48.862;9.188;2022-12-29T04:24:31;11.60;99.90
9209;DHT22;4639;48.862;9.188;2022-12-29T04:26:57;11.60;99.90
9209;DHT22;4639;48.862;9.188;2022-12-29T04:29:22;11.60;99.90
9209;DHT22;4639;48.862;9.188;2022-12-29T04:31:48;11.60;99.90
9209;DHT22;4639;48.862;9.188;2022-12-29T04:34:13;11.50;99.90
9209;DHT22;4639;48.862;9.188;2022-12-29T04:36:39;11.60;99.90
9209;DHT22;4639;48.862;9.188;2022-12-29T04:39:07;11.70;99.90
9209;DHT22;4639;48.862;9.188;2022-12-29T04:41:33;11.70;99.90
9209;DHT22;4639;48.862;9.188;2022-12-29T04:43:59;11.70;99.90
9209;DHT22;4639;48.862;9.188;2022-12-29T04:46:24;11.70;99.90
9209;DHT22;4639;48.862;9.188;2022-12-29T04:48:50;11.70;99.90
9209;DHT22;4639;48.862;9.188;2022-12-29T04:51:15;11.70;99.90
9209;DHT22;4639;48.862;9.188;2022-12-29T04:53:41;11.70;99.90
9209;DHT22;4639;48.862;9.188;2022-12-29T04:56:07;11.70;99.90
9209;DHT22;4639;48.862;9.188;2022-12-29T04:58:32;11.70;99.90
9209;DHT22;4639;48.862;9.188;2022-12-29T05:00:58;11.70;99.90
9209;DHT22;4639;48.862;9.188;2022-12-29T05:03:23;11.70;99.90
9209;DHT22;4639;48.862;9.188;2022-12-29T05:05:52;11.70;99.90
9209;DHT22;4639;48.862;9.188;2022-12-29T05:08:17;11.80;99.90
9209;DHT22;4639;48.862;9.188;2022-12-29T05:10:46;11.80;99.90
9209;DHT22;4639;48.862;9.188;2022-12-29T05:13:12;11.70;99.90
9209;DHT22;4639;48.862;9.188;2022-12-29T05:15:37;11.80;99.90
9209;DHT22;4639;48.862;9.188;2022-12-29T05:18:03;11.80;99.90
9209;DHT22;4639;48.862;9.188;2022-12-29T05:20:29;11.70;99.90
9209;DHT22;4639;48.862;9.188;2022-12-29T05:22:54;11.80;99.90
9209;DHT22;4639;48.862;9.188;2022-12-29T05:25:20;12.00;99.90
9209;DHT22;4639;48.862;9.188;2022-12-29T05:27:45;11.80;99.90
9209;DHT22;4639;48.862;9.188;2022-12-29T05:30:11;11.90;99.90
9209;DHT22;4639;48.862;9.188;2022-12-29T05:32:37;11.90;99.90
9209;DHT22;4639;48.862;9.188;2022-12-29T05:35:03;11.90;99.90
9209;DHT22;4639;48.862;9.188;2022-12-29T05:37:29;11.90;99.90
9209;DHT22;4639;48.862;9.188;2022-12-29T05:39:54;12.00;99.90
9209;DHT22;4639;48.862;9.188;2022-12-29T05:42:20;12.00;99.90
9209;DHT22;4639;48.862;9.188;2022-12-29T05:44:45;12.00;99.90
9209;DHT22;4639;48.862;9.188;2022-12-29T05:47:11;12.10;99.90
9209;DHT22;4639;48.862;9.188;2022-12-29T05:49:36;12.10;99.90
9209;DHT22;4639;48.862;9.188;2022-12-29T05:52:02;12.10;99.90
9209;DHT22;4639;48.862;9.188;2022-12-29T05:54:27;12.20;99.90
9209;DHT22;4639;48.862;9.188;2022-12-29T05:56:53;12.20;99.90
9209;DHT22;4639;48.862;9.188;2022-12-29T05:59:19;12.20;99.90
9209;DHT22;4639;48.862;9.188;2022-12-29T06:01:45;12.30;99.90
9209;DHT22;4639;48.862;9.188;2022-12-29T06:04:10;12.30;99.90
9209;DHT22;4639;48.862;9.188;2022-12-29T06:06:36;12.30;99.90
9209;DHT22;4639;48.862;9.188;2022-12-29T06:09:01;12.30;99.90
9209;DHT22;4639;48.862;9.188;2022-12-29T06:11:27;12.20;99.90
9209;DHT22;4639;48.862;9.188;2022-12-29T06:13:52;12.20;99.90
9209;DHT22;4639;48.862;9.188;2022-12-29T06:16:18;12.20;99.90
9209;DHT22;4639;48.862;9.188;2022-12-29T06:18:43;12.20;99.90
9209;DHT22;4639;48.862;9.188;2022-12-29T06:21:09;12.20;99.90
9209;DHT22;4639;48.862;9.188;2022-12-29T06:23:35;12.20;99.90
9209;DHT22;4639;48.862;9.188;2022-12-29T06:26:03;12.20;99.90
9209;DHT22;4639;48.862;9.188;2022-12-29T06:28:28;12.20;99.90
9209;DHT22;4639;48.862;9.188;2022-12-29T06:30:54;12.20;99.90
9209;DHT22;4639;48.862;9.188;2022-12-29T06:33:19;12.20;99.90
9209;DHT22;4639;48.862;9.188;2022-12-29T06:35:46;12.20;99.90
9209;DHT22;4639;48.862;9.188;2022-12-29T06:38:11;12.20;99.90
9209;DHT22;4639;48.862;9.188;2022-12-29T06:40:37;12.20;99.90
9209;DHT22;4639;48.862;9.188;2022-12-29T06:43:03;12.10;99.90
9209;DHT22;4639;48.862;9.188;2022-12-29T06:45:28;12.40;99.90
9209;DHT22;4639;48.862;9.188;2022-12-29T06:47:54;12.20;99.90
9209;DHT22;4639;48.862;9.188;2022-12-29T06:50:20;12.20;99.90
9209;DHT22;4639;48.862;9.188;2022-12-29T06:52:45;12.30;99.90
9209;DHT22;4639;48.862;9.188;2022-12-29T06:55:11;12.40;99.90
9209;DHT22;4639;48.862;9.188;2022-12-29T06:57:36;12.40;99.90
9209;DHT22;4639;48.862;9.188;2022-12-29T07:00:03;12.40;99.90
9209;DHT22;4639;48.862;9.188;2022-12-29T07:02:30;12.40;99.90
9209;DHT22;4639;48.862;9.188;2022-12-29T07:04:55;12.40;99.90
9209;DHT22;4639;48.862;9.188;2022-12-29T07:07:21;12.30;99.90
9209;DHT22;4639;48.862;9.188;2022-12-29T07:09:49;12.30;99.90
9209;DHT22;4639;48.862;9.188;2022-12-29T07:12:15;12.20;99.90
9209;DHT22;4639;48.862;9.188;2022-12-29T07:14:41;12.20;99.90
9209;DHT22;4639;48.862;9.188;2022-12-29T07:17:06;12.20;99.90
9209;DHT22;4639;48.862;9.188;2022-12-29T07:19:32;12.10;99.90
9209;DHT22;4639;48.862;9.188;2022-12-29T07:21:58;12.10;99.90
9209;DHT22;4639;48.862;9.188;2022-12-29T07:24:24;12.10;99.90
9209;DHT22;4639;48.862;9.188;2022-12-29T07:26:51;12.00;99.90
9209;DHT22;4639;48.862;9.188;2022-12-29T07:29:17;11.90;99.90
9209;DHT22;4639;48.862;9.188;2022-12-29T07:31:43;11.90;99.90
9209;DHT22;4639;48.862;9.188;2022-12-29T07:34:09;11.90;99.90
9209;DHT22;4639;48.862;9.188;2022-12-29T07:36:34;11.80;99.90
9209;DHT22;4639;48.862;9.188;2022-12-29T07:39:00;11.80;99.90
9209;DHT22;4639;48.862;9.188;2022-12-29T07:41:26;11.80;99.90
9209;DHT22;4639;48.862;9.188;2022-12-29T07:43:52;11.80;99.90
9209;DHT22;4639;48.862;9.188;2022-12-29T07:46:17;11.70;99.90
9209;DHT22;4639;48.862;9.188;2022-12-29T07:48:43;11.70;99.90
9209;DHT22;4639;48.862;9.188;2022-12-29T07:51:08;11.70;99.90
9209;DHT22;4639;48.862;9.188;2022-12-29T07:53:35;11.70;99.90
9209;DHT22;4639;48.862;9.188;2022-12-29T07:56:00;11.70;99.90
9209;DHT22;4639;48.862;9.188;2022-12-29T07:58:26;11.70;99.90
9209;DHT22;4639;48.862;9.188;2022-12-29T08:00:55;11.70;99.90
9209;DHT22;4639;48.862;9.188;2022-12-29T08:03:21;11.70;99.90
9209;DHT22;4639;48.862;9.188;2022-12-29T08:05:46;11.70;99.90
9209;DHT22;4639;48.862;9.188;2022-12-29T08:08:12;11.80;99.90
9209;DHT22;4639;48.862;9.188;2022-12-29T08:10:38;11.80;99.90
9209;DHT22;4639;48.862;9.188;2022-12-29T08:13:03;11.80;99.90
9209;DHT22;4639;48.862;9.188;2022-12-29T08:15:29;11.80;99.90
9209;DHT22;4639;48.862;9.188;2022-12-29T08:17:54;11.90;99.90
9209;DHT22;4639;48.862;9.188;2022-12-29T08:20:20;11.90;99.90
9209;DHT22;4639;48.862;9.188;2022-12-29T08:22:45;12.00;99.90
9209;DHT22;4639;48.862;9.188;2022-12-29T08:25:11;12.10;99.90
9209;DHT22;4639;48.862;9.188;2022-12-29T08:27:36;12.10;99.90
9209;DHT22;4639;48.862;9.188;2022-12-29T08:30:03;12.10;99.90
9209;DHT22;4639;48.862;9.188;2022-12-29T08:32:29;12.10;99.90
9209;DHT22;4639;48.862;9.188;2022-12-29T08:34:54;12.20;99.90
9209;DHT22;4639;48.862;9.188;2022-12-29T08:37:20;12.20;99.90
9209;DHT22;4639;48.862;9.188;2022-12-29T08:39:47;12.20;99.90
9209;DHT22;4639;48.862;9.188;2022-12-29T08:42:13;12.20;99.90
9209;DHT22;4639;48.862;9.188;2022-12-29T08:44:39;12.10;99.90
9209;DHT22;4639;48.862;9.188;2022-12-29T08:47:04;12.10;99.90
9209;DHT22;4639;48.862;9.188;2022-12-29T08:49:30;12.10;99.90
9209;DHT22;4639;48.862;9.188;2022-12-29T08:51:56;12.30;99.90
9209;DHT22;4639;48.862;9.188;2022-12-29T08:54:21;12.10;99.90
9209;DHT22;4639;48.862;9.188;2022-12-29T08:56:47;12.10;99.90
9209;DHT22;4639;48.862;9.188;2022-12-29T08:59:13;12.10;99.90
9209;DHT22;4639;48.862;9.188;2022-12-29T09:01:38;12.10;99.90
9209;DHT22;4639;48.862;9.188;2022-12-29T09:04:06;12.10;99.90
9209;DHT22;4639;48.862;9.188;2022-12-29T09:06:32;12.20;99.90
9209;DHT22;4639;48.862;9.188;2022-12-29T09:08:58;12.20;99.90
9209;DHT22;4639;48.862;9.188;2022-12-29T09:11:24;12.20;99.90
9209;DHT22;4639;48.862;9.188;2022-12-29T09:13:51;12.20;99.90
9209;DHT22;4639;48.862;9.188;2022-12-29T09:16:17;12.30;99.90
9209;DHT22;4639;48.862;9.188;2022-12-29T09:18:44;12.30;99.90
9209;DHT22;4639;48.862;9.188;2022-12-29T09:21:11;12.30;99.90
9209;DHT22;4639;48.862;9.188;2022-12-29T09:23:36;12.40;99.90
9209;DHT22;4639;48.862;9.188;2022-12-29T09:26:02;12.40;99.90
9209;DHT22;4639;48.862;9.188;2022-12-29T09:28:28;12.40;99.90
9209;DHT22;4639;48.862;9.188;2022-12-29T09:30:55;12.60;99.90
9209;DHT22;4639;48.862;9.188;2022-12-29T09:33:21;12.50;99.90
9209;DHT22;4639;48.862;9.188;2022-12-29T09:35:52;12.60;99.90
9209;DHT22;4639;48.862;9.188;2022-12-29T09:38:18;12.60;99.90
9209;DHT22;4639;48.862;9.188;2022-12-29T09:40:49;12.70;99.90
9209;DHT22;4639;48.862;9.188;2022-12-29T09:46:26;12.80;99.90
9209;DHT22;4639;48.862;9.188;2022-12-29T09:51:39;12.90;99.90
9209;DHT22;4639;48.862;9.188;2022-12-29T09:54:24;12.90;99.90
9209;DHT22;4639;48.862;9.188;2022-12-29T09:56:53;12.90;99.90
9209;DHT22;4639;48.862;9.188;2022-12-29T09:59:22;13.00;99.90
9209;DHT22;4639;48.862;9.188;2022-12-29T10:01:57;12.90;99.90
9209;DHT22;4639;48.862;9.188;2022-12-29T10:04:28;13.00;99.90
9209;DHT22;4639;48.862;9.188;2022-12-29T10:06:56;13.00;99.90
9209;DHT22;4639;48.862;9.188;2022-12-29T10:09:58;13.00;99.90
9209;DHT22;4639;48.862;9.188;2022-12-29T10:12:52;13.10;99.90
9209;DHT22;4639;48.862;9.188;2022-12-29T10:15:48;13.20;99.90
9209;DHT22;4639;48.862;9.188;2022-12-29T10:18:49;13.40;99.90
9209;DHT22;4639;48.862;9.188;2022-12-29T10:21:45;13.50;99.90
9209;DHT22;4639;48.862;9.188;2022-12-29T10:24:13;13.60;99.90
9209;DHT22;4639;48.862;9.188;2022-12-29T10:26:41;13.60;99.90
9209;DHT22;4639;48.862;9.188;2022-12-29T10:29:20;13.70;99.90
9209;DHT22;4639;48.862;9.188;2022-12-29T10:32:00;13.70;99.90
9209;DHT22;4639;48.862;9.188;2022-12-29T10:34:38;13.70;99.90
9209;DHT22;4639;48.862;9.188;2022-12-29T10:39:55;13.70;99.90
9209;DHT22;4639;48.862;9.188;2022-12-29T10:42:28;13.70;99.90
9209;DHT22;4639;48.862;9.188;2022-12-29T10:44:55;13.80;99.90
9209;DHT22;4639;48.862;9.188;2022-12-29T10:47:28;13.80;99.90
9209;DHT22;4639;48.862;9.188;2022-12-29T10:49:54;13.80;99.90
9209;DHT22;4639;48.862;9.188;2022-12-29T10:52:22;13.80;99.90
9209;DHT22;4639;48.862;9.188;2022-12-29T10:54:49;13.80;99.90
9209;DHT22;4639;48.862;9.188;2022-12-29T10:57:26;13.90;99.90
9209;DHT22;4639;48.862;9.188;2022-12-29T10:59:52;13.80;99.90
9209;DHT22;4639;48.862;9.188;2022-12-29T11:05:27;13.70;99.90
9209;DHT22;4639;48.862;9.188;2022-12-29T11:07:59;13.60;99.90
9209;DHT22;4639;48.862;9.188;2022-12-29T11:13:00;13.70;99.90
9209;DHT22;4639;48.862;9.188;2022-12-29T11:15:26;13.70;99.90
9209;DHT22;4639;48.862;9.188;2022-12-29T11:17:55;13.70;99.90
9209;DHT22;4639;48.862;9.188;2022-12-29T11:22:56;13.80;99.90
9209;DHT22;4639;48.862;9.188;2022-12-29T11:25:22;13.80;99.90
9209;DHT22;4639;48.862;9.188;2022-12-29T11:28:02;13.80;99.90
9209;DHT22;4639;48.862;9.188;2022-12-29T11:30:31;13.80;99.90
9209;DHT22;4639;48.862;9.188;2022-12-29T11:32:58;13.80;99.90
9209;DHT22;4639;48.862;9.188;2022-12-29T11:35:43;13.90;99.90
9209;DHT22;4639;48.862;9.188;2022-12-29T11:38:34;13.80;99.90
9209;DHT22;4639;48.862;9.188;2022-12-29T11:41:00;13.80;99.90
9209;DHT22;4639;48.862;9.188;2022-12-29T11:43:37;13.80;99.90
9209;DHT22;4639;48.862;9.188;2022-12-29T11:46:04;13.80;99.90
9209;DHT22;4639;48.862;9.188;2022-12-29T11:48:40;13.80;99.90
9209;DHT22;4639;48.862;9.188;2022-12-29T11:51:07;13.70;99.90
9209;DHT22;4639;48.862;9.188;2022-12-29T11:53:46;13.80;99.90
9209;DHT22;4639;48.862;9.188;2022-12-29T11:56:15;13.70;99.90
9209;DHT22;4639;48.862;9.188;2022-12-29T11:58:41;13.60;99.90
9209;DHT22;4639;48.862;9.188;2022-12-29T12:01:34;13.50;99.90
9209;DHT22;4639;48.862;9.188;2022-12-29T12:04:03;13.40;99.90
9209;DHT22;4639;48.862;9.188;2022-12-29T12:06:34;13.30;99.90
9209;DHT22;4639;48.862;9.188;2022-12-29T12:09:10;13.30;99.90
9209;DHT22;4639;48.862;9.188;2022-12-29T12:11:40;13.30;99.90
9209;DHT22;4639;48.862;9.188;2022-12-29T12:16:55;13.30;99.90
9209;DHT22;4639;48.862;9.188;2022-12-29T12:19:34;13.20;99.90
9209;DHT22;4639;48.862;9.188;2022-12-29T12:22:24;13.20;99.90
9209;DHT22;4639;48.862;9.188;2022-12-29T12:25:03;13.20;99.90
9209;DHT22;4639;48.862;9.188;2022-12-29T12:27:39;13.20;99.90
9209;DHT22;4639;48.862;9.188;2022-12-29T12:30:21;13.20;99.90
9209;DHT22;4639;48.862;9.188;2022-12-29T12:33:06;13.20;99.90
9209;DHT22;4639;48.862;9.188;2022-12-29T12:38:26;13.20;99.90
9209;DHT22;4639;48.862;9.188;2022-12-29T12:41:09;13.20;99.90
9209;DHT22;4639;48.862;9.188;2022-12-29T12:43:40;13.30;99.90
9209;DHT22;4639;48.862;9.188;2022-12-29T12:57:17;13.70;99.90
9209;DHT22;4639;48.862;9.188;2022-12-29T12:59:56;13.70;99.90
9209;DHT22;4639;48.862;9.188;2022-12-29T13:10:50;13.70;99.90
9209;DHT22;4639;48.862;9.188;2022-12-29T13:13:33;13.80;99.90
9209;DHT22;4639;48.862;9.188;2022-12-29T13:19:05;13.70;99.90
9209;DHT22;4639;48.862;9.188;2022-12-29T13:26:43;13.40;99.90
9209;DHT22;4639;48.862;9.188;2022-12-29T13:29:24;13.40;99.90
9209;DHT22;4639;48.862;9.188;2022-12-29T13:34:50;13.40;99.90
9209;DHT22;4639;48.862;9.188;2022-12-29T13:37:20;13.30;99.90
9209;DHT22;4639;48.862;9.188;2022-12-29T13:40:01;13.30;99.90
9209;DHT22;4639;48.862;9.188;2022-12-29T13:42:27;13.30;99.90
9209;DHT22;4639;48.862;9.188;2022-12-29T13:45:01;13.20;99.90
9209;DHT22;4639;48.862;9.188;2022-12-29T13:47:36;13.30;99.90
9209;DHT22;4639;48.862;9.188;2022-12-29T13:50:08;13.20;99.90
9209;DHT22;4639;48.862;9.188;2022-12-29T13:52:39;13.10;99.90
9209;DHT22;4639;48.862;9.188;2022-12-29T13:58:02;13.10;99.90
9209;DHT22;4639;48.862;9.188;2022-12-29T14:00:39;13.20;99.90
9209;DHT22;4639;48.862;9.188;2022-12-29T14:06:25;13.20;99.90
9209;DHT22;4639;48.862;9.188;2022-12-29T14:09:02;13.20;99.90
9209;DHT22;4639;48.862;9.188;2022-12-29T14:11:34;13.20;99.90
9209;DHT22;4639;48.862;9.188;2022-12-29T14:14:28;13.20;99.90
9209;DHT22;4639;48.862;9.188;2022-12-29T14:17:09;13.20;99.90
9209;DHT22;4639;48.862;9.188;2022-12-29T14:19:39;13.30;99.90
9209;DHT22;4639;48.862;9.188;2022-12-29T14:22:06;13.20;99.90
9209;DHT22;4639;48.862;9.188;2022-12-29T14:26:58;13.10;99.90
9209;DHT22;4639;48.862;9.188;2022-12-29T14:31:50;13.10;99.90
9209;DHT22;4639;48.862;9.188;2022-12-29T14:37:03;13.20;99.90
9209;DHT22;4639;48.862;9.188;2022-12-29T14:39:41;13.20;99.90
9209;DHT22;4639;48.862;9.188;2022-12-29T14:42:12;13.20;99.90
9209;DHT22;4639;48.862;9.188;2022-12-29T14:44:50;13.20;99.90
9209;DHT22;4639;48.862;9.188;2022-12-29T14:50:04;13.10;99.90
9209;DHT22;4639;48.862;9.188;2022-12-29T14:52:31;13.10;99.90
9209;DHT22;4639;48.862;9.188;2022-12-29T14:57:44;13.10;99.90
9209;DHT22;4639;48.862;9.188;2022-12-29T15:00:19;13.10;99.90
9209;DHT22;4639;48.862;9.188;2022-12-29T15:03:31;13.10;99.90
9209;DHT22;4639;48.862;9.188;2022-12-29T15:08:27;13.20;99.90
9209;DHT22;4639;48.862;9.188;2022-12-29T15:11:15;13.10;99.90
9209;DHT22;4639;48.862;9.188;2022-12-29T15:13:43;13.10;99.90
9209;DHT22;4639;48.862;9.188;2022-12-29T15:16:25;13.00;99.90
9209;DHT22;4639;48.862;9.188;2022-12-29T15:18:51;12.90;99.90
9209;DHT22;4639;48.862;9.188;2022-12-29T15:21:17;12.90;99.90
9209;DHT22;4639;48.862;9.188;2022-12-29T15:23:45;12.90;99.90
9209;DHT22;4639;48.862;9.188;2022-12-29T15:26:11;12.80;99.90
9209;DHT22;4639;48.862;9.188;2022-12-29T15:28:46;12.90;99.90
9209;DHT22;4639;48.862;9.188;2022-12-29T15:31:15;12.90;99.90
9209;DHT22;4639;48.862;9.188;2022-12-29T15:33:42;12.80;99.90
9209;DHT22;4639;48.862;9.188;2022-12-29T15:36:16;12.80;99.90
9209;DHT22;4639;48.862;9.188;2022-12-29T15:38:42;12.80;99.90
9209;DHT22;4639;48.862;9.188;2022-12-29T15:43:58;12.10;99.90
9209;DHT22;4639;48.862;9.188;2022-12-29T15:46:30;11.30;99.90
9209;DHT22;4639;48.862;9.188;2022-12-29T15:48:56;10.60;99.90
9209;DHT22;4639;48.862;9.188;2022-12-29T15:51:37;10.30;99.90
9209;DHT22;4639;48.862;9.188;2022-12-29T15:54:03;10.20;99.90
9209;DHT22;4639;48.862;9.188;2022-12-29T15:56:30;10.20;99.90
9209;DHT22;4639;48.862;9.188;2022-12-29T15:58:57;10.20;99.90
9209;DHT22;4639;48.862;9.188;2022-12-29T16:01:34;10.20;99.90
9209;DHT22;4639;48.862;9.188;2022-12-29T16:04:04;10.20;99.90
9209;DHT22;4639;48.862;9.188;2022-12-29T16:06:34;10.20;99.90
9209;DHT22;4639;48.862;9.188;2022-12-29T16:09:36;10.20;99.90
9209;DHT22;4639;48.862;9.188;2022-12-29T16:12:15;10.30;99.90
9209;DHT22;4639;48.862;9.188;2022-12-29T16:14:46;10.40;99.90
9209;DHT22;4639;48.862;9.188;2022-12-29T16:17:14;10.30;99.90
9209;DHT22;4639;48.862;9.188;2022-12-29T16:19:51;10.20;99.90
9209;DHT22;4639;48.862;9.188;2022-12-29T16:22:30;10.20;99.90
9209;DHT22;4639;48.862;9.188;2022-12-29T16:25:24;10.20;99.90
9209;DHT22;4639;48.862;9.188;2022-12-29T16:27:51;10.30;99.90
9209;DHT22;4639;48.862;9.188;2022-12-29T16:30:21;10.40;99.90
9209;DHT22;4639;48.862;9.188;2022-12-29T16:32:50;10.40;99.90
9209;DHT22;4639;48.862;9.188;2022-12-29T16:35:21;10.30;99.90
9209;DHT22;4639;48.862;9.188;2022-12-29T16:37:48;10.30;99.90
9209;DHT22;4639;48.862;9.188;2022-12-29T16:40:31;10.30;99.90
9209;DHT22;4639;48.862;9.188;2022-12-29T16:43:04;10.20;99.90
9209;DHT22;4639;48.862;9.188;2022-12-29T16:48:19;10.30;99.90
9209;DHT22;4639;48.862;9.188;2022-12-29T16:50:45;10.40;99.90
9209;DHT22;4639;48.862;9.188;2022-12-29T16:53:24;10.40;99.90
9209;DHT22;4639;48.862;9.188;2022-12-29T16:55:52;10.40;99.90
9209;DHT22;4639;48.862;9.188;2022-12-29T16:58:22;10.30;99.90
9209;DHT22;4639;48.862;9.188;2022-12-29T17:00:49;10.20;99.90
9209;DHT22;4639;48.862;9.188;2022-12-29T17:03:15;10.10;99.90
9209;DHT22;4639;48.862;9.188;2022-12-29T17:05:41;10.10;99.90
9209;DHT22;4639;48.862;9.188;2022-12-29T17:08:17;10.10;99.90
9209;DHT22;4639;48.862;9.188;2022-12-29T17:10:51;10.10;99.90
9209;DHT22;4639;48.862;9.188;2022-12-29T17:13:36;10.20;99.90
9209;DHT22;4639;48.862;9.188;2022-12-29T17:16:04;10.20;99.90
9209;DHT22;4639;48.862;9.188;2022-12-29T17:18:29;10.20;99.90
9209;DHT22;4639;48.862;9.188;2022-12-29T17:20:55;10.20;99.90
9209;DHT22;4639;48.862;9.188;2022-12-29T17:23:20;10.30;99.90
9209;DHT22;4639;48.862;9.188;2022-12-29T17:25:46;10.30;99.90
9209;DHT22;4639;48.862;9.188;2022-12-29T17:28:26;10.30;99.90
9209;DHT22;4639;48.862;9.188;2022-12-29T17:30:56;10.30;99.90
9209;DHT22;4639;48.862;9.188;2022-12-29T17:33:22;10.30;99.90
9209;DHT22;4639;48.862;9.188;2022-12-29T17:38:24;10.20;99.90
9209;DHT22;4639;48.862;9.188;2022-12-29T17:40:51;10.30;99.90
9209;DHT22;4639;48.862;9.188;2022-12-29T17:43:17;10.30;99.90
9209;DHT22;4639;48.862;9.188;2022-12-29T17:45:54;10.20;99.90
9209;DHT22;4639;48.862;9.188;2022-12-29T17:48:21;10.10;99.90
9209;DHT22;4639;48.862;9.188;2022-12-29T17:50:49;10.20;99.90
9209;DHT22;4639;48.862;9.188;2022-12-29T17:53:24;10.20;99.90
9209;DHT22;4639;48.862;9.188;2022-12-29T17:55:51;10.10;99.90
9209;DHT22;4639;48.862;9.188;2022-12-29T17:58:19;10.10;99.90
9209;DHT22;4639;48.862;9.188;2022-12-29T18:00:47;10.10;99.90
9209;DHT22;4639;48.862;9.188;2022-12-29T18:05:51;10.00;99.90
9209;DHT22;4639;48.862;9.188;2022-12-29T18:08:16;10.00;99.90
9209;DHT22;4639;48.862;9.188;2022-12-29T18:10:42;10.00;99.90
9209;DHT22;4639;48.862;9.188;2022-12-29T18:13:21;9.90;99.90
9209;DHT22;4639;48.862;9.188;2022-12-29T18:15:47;9.80;99.90
9209;DHT22;4639;48.862;9.188;2022-12-29T18:18:24;9.80;99.90
9209;DHT22;4639;48.862;9.188;2022-12-29T18:20:52;9.70;99.90
9209;DHT22;4639;48.862;9.188;2022-12-29T18:23:27;9.70;99.90
9209;DHT22;4639;48.862;9.188;2022-12-29T18:26:02;9.60;99.90